sensor_id;sensor_type;location;lat;lon;timestamp;pressure;altitude;pressure_sealevel;temperature;humidity
51496;BME280;37572;52.094;4.870;2022-07-25T00:01:11;101018.94;;;22.72;77.37
51496;BME280;37572;52.094;4.870;2022-07-25T00:03:36;101025.25;;;22.72;76.50
51496;BME280;37572;52.094;4.870;2022-07-25T00:06:01;101042.56;;;22.73;74.82
51496;BME280;37572;52.094;4.870;2022-07-25T00:08:26;101039.25;;;22.71;75.96
51496;BME280;37572;52.094;4.870;2022-07-25T00:10:52;101028.69;;;22.54;77.27
51496;BME280;37572;52.094;4.870;2022-07-25T00:13:17;101031.78;;;22.42;78.11
51496;BME280;37572;52.094;4.870;2022-07-25T00:15:42;101026.63;;;22.30;80.50
51496;BME280;37572;52.094;4.870;2022-07-25T00:18:08;101030.22;;;22.20;80.38
51496;BME280;37572;52.094;4.870;2022-07-25T00:20:33;101025.06;;;22.14;80.57
51496;BME280;37572;52.094;4.870;2022-07-25T00:22:58;101027.56;;;22.05;81.66
51496;BME280;37572;52.094;4.870;2022-07-25T00:25:24;101018.28;;;21.96;81.62
51496;BME280;37572;52.094;4.870;2022-07-25T00:27:49;101016.41;;;21.86;82.47
51496;BME280;37572;52.094;4.870;2022-07-25T00:30:14;101013.72;;;21.76;83.65
51496;BME280;37572;52.094;4.870;2022-07-25T00:32:40;101008.53;;;21.69;84.45
51496;BME280;37572;52.094;4.870;2022-07-25T00:35:05;101000.88;;;21.61;85.42
51496;BME280;37572;52.094;4.870;2022-07-25T00:37:31;100992.97;;;21.54;85.78
51496;BME280;37572;52.094;4.870;2022-07-25T00:39:56;100996.25;;;21.46;86.90
51496;BME280;37572;52.094;4.870;2022-07-25T00:42:21;100988.88;;;21.36;88.02
51496;BME280;37572;52.094;4.870;2022-07-25T00:44:48;100985.06;;;21.27;88.86
51496;BME280;37572;52.094;4.870;2022-07-25T00:47:14;100981.25;;;21.17;90.30
51496;BME280;37572;52.094;4.870;2022-07-25T00:49:39;100984.00;;;21.12;90.97
51496;BME280;37572;52.094;4.870;2022-07-25T00:52:05;100985.66;;;21.08;90.75
51496;BME280;37572;52.094;4.870;2022-07-25T00:54:31;100983.19;;;21.07;91.63
51496;BME280;37572;52.094;4.870;2022-07-25T00:56:56;100984.00;;;21.02;91.85
51496;BME280;37572;52.094;4.870;2022-07-25T00:59:21;100982.63;;;20.99;92.16
51496;BME280;37572;52.094;4.870;2022-07-25T01:01:47;100971.72;;;20.94;93.27
51496;BME280;37572;52.094;4.870;2022-07-25T01:04:13;100968.72;;;20.91;93.66
51496;BME280;37572;52.094;4.870;2022-07-25T01:06:39;100967.34;;;20.88;93.69
51496;BME280;37572;52.094;4.870;2022-07-25T01:09:05;100958.59;;;20.86;93.27
51496;BME280;37572;52.094;4.870;2022-07-25T01:11:30;100961.31;;;20.86;93.80
51496;BME280;37572;52.094;4.870;2022-07-25T01:13:56;100959.94;;;20.89;92.82
51496;BME280;37572;52.094;4.870;2022-07-25T01:16:21;100957.19;;;20.89;93.65
51496;BME280;37572;52.094;4.870;2022-07-25T01:18:46;100944.06;;;20.91;94.02
51496;BME280;37572;52.094;4.870;2022-07-25T01:21:12;100951.16;;;20.92;93.66
51496;BME280;37572;52.094;4.870;2022-07-25T01:23:38;100949.81;;;20.89;93.69
51496;BME280;37572;52.094;4.870;2022-07-25T01:26:04;100947.63;;;20.91;93.01
51496;BME280;37572;52.094;4.870;2022-07-25T01:28:29;100945.41;;;20.93;92.31
51496;BME280;37572;52.094;4.870;2022-07-25T01:30:54;100945.97;;;21.00;91.94
51496;BME280;37572;52.094;4.870;2022-07-25T01:33:21;100947.59;;;21.07;92.54
51496;BME280;37572;52.094;4.870;2022-07-25T01:35:47;100943.50;;;21.09;92.51
51496;BME280;37572;52.094;4.870;2022-07-25T01:38:13;100937.47;;;21.07;91.76
51496;BME280;37572;52.094;4.870;2022-07-25T01:40:39;100935.00;;;21.00;91.74
51496;BME280;37572;52.094;4.870;2022-07-25T01:43:05;100937.22;;;20.93;90.86
51496;BME280;37572;52.094;4.870;2022-07-25T01:45:31;100926.00;;;20.90;91.63
51496;BME280;37572;52.094;4.870;2022-07-25T01:47:56;100914.53;;;20.88;91.75
51496;BME280;37572;52.094;4.870;2022-07-25T01:50:22;100913.41;;;20.89;92.05
51496;BME280;37572;52.094;4.870;2022-07-25T01:52:47;100905.75;;;20.91;92.26
51496;BME280;37572;52.094;4.870;2022-07-25T01:55:13;100900.00;;;20.92;92.13
51496;BME280;37572;52.094;4.870;2022-07-25T01:57:38;100910.69;;;20.94;91.21
51496;BME280;37572;52.094;4.870;2022-07-25T02:00:06;100899.41;;;21.00;91.65
51496;BME280;37572;52.094;4.870;2022-07-25T02:02:32;100897.50;;;21.01;91.49
51496;BME280;37572;52.094;4.870;2022-07-25T02:04:57;100899.69;;;21.04;90.20
51496;BME280;37572;52.094;4.870;2022-07-25T02:07:23;100891.75;;;21.08;89.88
51496;BME280;37572;52.094;4.870;2022-07-25T02:09:48;100890.38;;;21.10;88.97
51496;BME280;37572;52.094;4.870;2022-07-25T02:12:13;100885.16;;;21.14;87.33
51496;BME280;37572;52.094;4.870;2022-07-25T02:14:39;100881.59;;;21.18;87.21
51496;BME280;37572;52.094;4.870;2022-07-25T02:17:05;100880.78;;;21.18;85.88
51496;BME280;37572;52.094;4.870;2022-07-25T02:19:31;100873.06;;;21.25;84.12
51496;BME280;37572;52.094;4.870;2022-07-25T02:21:56;100871.38;;;21.40;81.94
51496;BME280;37572;52.094;4.870;2022-07-25T02:24:21;100867.50;;;21.46;81.54
51496;BME280;37572;52.094;4.870;2022-07-25T02:26:46;100872.69;;;21.52;82.24
51496;BME280;37572;52.094;4.870;2022-07-25T02:29:12;100861.44;;;21.54;83.28
51496;BME280;37572;52.094;4.870;2022-07-25T02:31:37;100852.41;;;21.53;84.60
51496;BME280;37572;52.094;4.870;2022-07-25T02:34:02;100858.72;;;21.54;84.69
51496;BME280;37572;52.094;4.870;2022-07-25T02:36:28;100855.97;;;21.49;85.77
51496;BME280;37572;52.094;4.870;2022-07-25T02:38:53;100860.41;;;21.40;86.94
51496;BME280;37572;52.094;4.870;2022-07-25T02:41:19;100853.03;;;21.35;87.66
51496;BME280;37572;52.094;4.870;2022-07-25T02:43:44;100851.13;;;21.30;88.66
51496;BME280;37572;52.094;4.870;2022-07-25T02:46:09;100842.41;;;21.23;89.56
51496;BME280;37572;52.094;4.870;2022-07-25T02:48:34;100831.47;;;21.13;90.39
51496;BME280;37572;52.094;4.870;2022-07-25T02:51:00;100832.59;;;21.07;90.68
51496;BME280;37572;52.094;4.870;2022-07-25T02:53:25;100835.38;;;21.01;91.60
51496;BME280;37572;52.094;4.870;2022-07-25T02:55:50;100831.00;;;20.95;92.17
51496;BME280;37572;52.094;4.870;2022-07-25T02:58:17;100832.13;;;20.89;92.40
51496;BME280;37572;52.094;4.870;2022-07-25T03:00:43;100828.84;;;20.87;92.79
51496;BME280;37572;52.094;4.870;2022-07-25T03:03:08;100820.66;;;20.82;93.07
51496;BME280;37572;52.094;4.870;2022-07-25T03:05:33;100826.41;;;20.80;93.74
51496;BME280;37572;52.094;4.870;2022-07-25T03:07:59;100825.03;;;20.78;94.53
51496;BME280;37572;52.094;4.870;2022-07-25T03:10:24;100821.19;;;20.79;94.84
51496;BME280;37572;52.094;4.870;2022-07-25T03:12:49;100818.47;;;20.79;94.71
51496;BME280;37572;52.094;4.870;2022-07-25T03:15:15;100818.47;;;20.79;94.71
51496;BME280;37572;52.094;4.870;2022-07-25T03:17:40;100826.69;;;20.79;94.50
51496;BME280;37572;52.094;4.870;2022-07-25T03:20:07;100820.69;;;20.77;95.05
51496;BME280;37572;52.094;4.870;2022-07-25T03:22:33;100823.69;;;20.75;95.14
51496;BME280;37572;52.094;4.870;2022-07-25T03:24:59;100832.97;;;20.74;95.09
51496;BME280;37572;52.094;4.870;2022-07-25T03:27:24;100832.72;;;20.71;95.33
51496;BME280;37572;52.094;4.870;2022-07-25T03:29:50;100836.03;;;20.67;93.60
51496;BME280;37572;52.094;4.870;2022-07-25T03:32:15;100831.34;;;20.68;92.83
51496;BME280;37572;52.094;4.870;2022-07-25T03:34:40;100825.59;;;20.70;93.96
51496;BME280;37572;52.094;4.870;2022-07-25T03:37:05;100820.13;;;20.70;94.20
51496;BME280;37572;52.094;4.870;2022-07-25T03:39:31;100822.84;;;20.59;92.33
51496;BME280;37572;52.094;4.870;2022-07-25T03:41:57;100826.97;;;20.62;92.45
51496;BME280;37572;52.094;4.870;2022-07-25T03:44:23;100830.53;;;20.57;92.76
51496;BME280;37572;52.094;4.870;2022-07-25T03:46:49;100825.59;;;20.59;92.31
51496;BME280;37572;52.094;4.870;2022-07-25T03:49:15;100820.97;;;20.65;91.35
51496;BME280;37572;52.094;4.870;2022-07-25T03:51:41;100816.31;;;20.65;91.24
51496;BME280;37572;52.094;4.870;2022-07-25T03:54:07;100818.75;;;20.62;91.45
51496;BME280;37572;52.094;4.870;2022-07-25T03:56:45;100816.56;;;20.64;91.37
51496;BME280;37572;52.094;4.870;2022-07-25T03:59:13;100824.50;;;20.65;92.08
51496;BME280;37572;52.094;4.870;2022-07-25T04:01:39;100829.97;;;20.60;92.07
51496;BME280;37572;52.094;4.870;2022-07-25T04:04:05;100831.34;;;20.58;91.18
51496;BME280;37572;52.094;4.870;2022-07-25T04:06:31;100837.09;;;20.66;91.17
51496;BME280;37572;52.094;4.870;2022-07-25T04:08:56;100822.88;;;20.70;91.69
51496;BME280;37572;52.094;4.870;2022-07-25T04:11:22;100825.34;;;20.71;92.25
51496;BME280;37572;52.094;4.870;2022-07-25T04:13:48;100832.72;;;20.71;91.71
51496;BME280;37572;52.094;4.870;2022-07-25T04:16:14;100834.09;;;20.68;90.78
51496;BME280;37572;52.094;4.870;2022-07-25T04:18:40;100837.94;;;20.72;91.25
51496;BME280;37572;52.094;4.870;2022-07-25T04:21:05;100839.28;;;20.75;92.32
51496;BME280;37572;52.094;4.870;2022-07-25T04:23:31;100830.25;;;20.74;92.57
51496;BME280;37572;52.094;4.870;2022-07-25T04:25:56;100830.25;;;20.74;93.56
51496;BME280;37572;52.094;4.870;2022-07-25T04:28:25;100826.44;;;20.75;94.13
51496;BME280;37572;52.094;4.870;2022-07-25T04:30:52;100826.44;;;20.75;93.78
51496;BME280;37572;52.094;4.870;2022-07-25T04:33:17;100818.22;;;20.75;93.69
51496;BME280;37572;52.094;4.870;2022-07-25T04:35:43;100812.47;;;20.77;93.72
51496;BME280;37572;52.094;4.870;2022-07-25T04:38:09;100812.75;;;20.75;94.46
51496;BME280;37572;52.094;4.870;2022-07-25T04:40:35;100802.06;;;20.74;95.41
51496;BME280;37572;52.094;4.870;2022-07-25T04:43:00;100802.06;;;20.74;95.71
51496;BME280;37572;52.094;4.870;2022-07-25T04:45:26;100804.53;;;20.70;95.24
51496;BME280;37572;52.094;4.870;2022-07-25T04:47:51;100801.78;;;20.70;95.75
51496;BME280;37572;52.094;4.870;2022-07-25T04:50:17;100807.25;;;20.70;96.14
51496;BME280;37572;52.094;4.870;2022-07-25T04:52:42;100805.09;;;20.72;96.84
51496;BME280;37572;52.094;4.870;2022-07-25T04:55:08;100819.03;;;20.76;96.92
51496;BME280;37572;52.094;4.870;2022-07-25T04:57:36;100819.56;;;20.78;95.86
51496;BME280;37572;52.094;4.870;2022-07-25T05:00:04;100809.94;;;20.85;95.41
51496;BME280;37572;52.094;4.870;2022-07-25T05:02:30;100816.50;;;20.90;93.52
51496;BME280;37572;52.094;4.870;2022-07-25T05:04:55;100811.00;;;21.00;91.79
51496;BME280;37572;52.094;4.870;2022-07-25T05:07:20;100817.53;;;21.09;89.57
51496;BME280;37572;52.094;4.870;2022-07-25T05:09:45;100819.41;;;21.24;89.10
51496;BME280;37572;52.094;4.870;2022-07-25T05:12:11;100817.44;;;21.30;85.90
51496;BME280;37572;52.094;4.870;2022-07-25T05:14:37;100818.75;;;21.37;83.28
51496;BME280;37572;52.094;4.870;2022-07-25T05:17:02;100820.94;;;21.46;81.34
51496;BME280;37572;52.094;4.870;2022-07-25T05:19:28;100821.38;;;21.63;80.83
51496;BME280;37572;52.094;4.870;2022-07-25T05:21:53;100822.69;;;21.76;79.05
51496;BME280;37572;52.094;4.870;2022-07-25T05:24:18;100821.22;;;21.89;78.15
51496;BME280;37572;52.094;4.870;2022-07-25T05:26:44;100820.88;;;21.96;77.69
51496;BME280;37572;52.094;4.870;2022-07-25T05:29:09;100818.34;;;22.04;76.82
51496;BME280;37572;52.094;4.870;2022-07-25T05:31:35;100825.09;;;22.17;77.32
51496;BME280;37572;52.094;4.870;2022-07-25T05:34:01;100815.72;;;22.23;76.06
51496;BME280;37572;52.094;4.870;2022-07-25T05:36:26;100827.75;;;22.27;74.98
51496;BME280;37572;52.094;4.870;2022-07-25T05:38:52;100817.41;;;22.19;74.31
51496;BME280;37572;52.094;4.870;2022-07-25T05:41:18;100822.84;;;22.24;74.37
51496;BME280;37572;52.094;4.870;2022-07-25T05:43:43;100824.78;;;22.24;73.88
51496;BME280;37572;52.094;4.870;2022-07-25T05:46:11;100840.38;;;22.29;74.53
51496;BME280;37572;52.094;4.870;2022-07-25T05:48:36;100836.78;;;22.28;73.86
51496;BME280;37572;52.094;4.870;2022-07-25T05:51:02;100837.81;;;22.37;74.31
51496;BME280;37572;52.094;4.870;2022-07-25T05:53:27;100825.59;;;22.54;74.21
51496;BME280;37572;52.094;4.870;2022-07-25T05:55:53;100829.63;;;22.61;73.26
51496;BME280;37572;52.094;4.870;2022-07-25T05:58:18;100822.81;;;22.59;72.37
51496;BME280;37572;52.094;4.870;2022-07-25T06:00:43;100817.50;;;22.68;72.89
51496;BME280;37572;52.094;4.870;2022-07-25T06:03:09;100827.38;;;22.69;72.08
51496;BME280;37572;52.094;4.870;2022-07-25T06:05:34;100825.44;;;22.69;72.27
51496;BME280;37572;52.094;4.870;2022-07-25T06:07:59;100834.06;;;22.87;71.39
51496;BME280;37572;52.094;4.870;2022-07-25T06:10:25;100825.00;;;23.10;71.42
51496;BME280;37572;52.094;4.870;2022-07-25T06:12:50;100830.16;;;23.36;71.01
51496;BME280;37572;52.094;4.870;2022-07-25T06:15:15;100829.34;;;23.36;70.00
51496;BME280;37572;52.094;4.870;2022-07-25T06:17:41;100831.13;;;23.26;70.57
51496;BME280;37572;52.094;4.870;2022-07-25T06:20:07;100831.63;;;23.09;70.31
51496;BME280;37572;52.094;4.870;2022-07-25T06:22:32;100831.34;;;23.11;70.29
51496;BME280;37572;52.094;4.870;2022-07-25T06:24:58;100834.28;;;23.14;69.89
51496;BME280;37572;52.094;4.870;2022-07-25T06:27:23;100831.34;;;23.11;70.68
51496;BME280;37572;52.094;4.870;2022-07-25T06:29:48;100845.16;;;23.01;69.94
51496;BME280;37572;52.094;4.870;2022-07-25T06:32:14;100849.94;;;22.90;70.23
51496;BME280;37572;52.094;4.870;2022-07-25T06:34:39;100836.25;;;22.85;71.46
51496;BME280;37572;52.094;4.870;2022-07-25T06:37:04;100838.34;;;22.69;72.15
51496;BME280;37572;52.094;4.870;2022-07-25T06:39:30;100823.94;;;22.58;72.76
51496;BME280;37572;52.094;4.870;2022-07-25T06:41:55;100844.00;;;22.53;73.55
51496;BME280;37572;52.094;4.870;2022-07-25T06:44:22;100845.44;;;22.46;75.46
51496;BME280;37572;52.094;4.870;2022-07-25T06:46:47;100843.91;;;22.34;74.89
51496;BME280;37572;52.094;4.870;2022-07-25T06:49:13;100840.63;;;22.32;75.27
51496;BME280;37572;52.094;4.870;2022-07-25T06:51:38;100841.75;;;22.26;75.52
51496;BME280;37572;52.094;4.870;2022-07-25T06:54:03;100838.50;;;22.24;75.39
51496;BME280;37572;52.094;4.870;2022-07-25T06:56:29;100841.25;;;22.19;75.60
51496;BME280;37572;52.094;4.870;2022-07-25T06:58:56;100842.09;;;22.19;76.20
51496;BME280;37572;52.094;4.870;2022-07-25T07:01:22;100843.75;;;22.15;76.20
51496;BME280;37572;52.094;4.870;2022-07-25T07:03:47;100853.13;;;22.09;76.34
51496;BME280;37572;52.094;4.870;2022-07-25T07:06:12;100844.09;;;22.08;77.14
51496;BME280;37572;52.094;4.870;2022-07-25T07:08:38;100848.47;;;22.09;76.40
51496;BME280;37572;52.094;4.870;2022-07-25T07:11:03;100847.09;;;22.12;77.46
51496;BME280;37572;52.094;4.870;2022-07-25T07:13:29;100850.41;;;22.09;76.92
51496;BME280;37572;52.094;4.870;2022-07-25T07:15:54;100851.19;;;22.15;76.27
51496;BME280;37572;52.094;4.870;2022-07-25T07:18:20;100851.13;;;22.20;76.82
51496;BME280;37572;52.094;4.870;2022-07-25T07:20:47;100846.44;;;22.25;77.75
51496;BME280;37572;52.094;4.870;2022-07-25T07:23:13;100837.41;;;22.20;77.80
51496;BME280;37572;52.094;4.870;2022-07-25T07:25:38;100844.72;;;22.30;76.95
51496;BME280;37572;52.094;4.870;2022-07-25T07:28:04;100843.06;;;22.39;77.47
51496;BME280;37572;52.094;4.870;2022-07-25T07:30:30;100840.84;;;22.41;77.59
51496;BME280;37572;52.094;4.870;2022-07-25T07:32:56;100846.94;;;22.33;77.82
51496;BME280;37572;52.094;4.870;2022-07-25T07:35:22;100846.63;;;22.34;77.79
51496;BME280;37572;52.094;4.870;2022-07-25T07:37:49;100848.38;;;22.20;80.86
51496;BME280;37572;52.094;4.870;2022-07-25T07:40:16;100851.22;;;22.09;82.16
51496;BME280;37572;52.094;4.870;2022-07-25T07:42:44;100842.97;;;22.15;84.07
51496;BME280;37572;52.094;4.870;2022-07-25T07:45:19;100847.03;;;22.17;83.93
51496;BME280;37572;52.094;4.870;2022-07-25T07:47:46;100854.16;;;22.18;84.51
51496;BME280;37572;52.094;4.870;2022-07-25T07:50:14;100853.81;;;22.25;83.29
51496;BME280;37572;52.094;4.870;2022-07-25T07:52:40;100857.63;;;22.29;83.38
51496;BME280;37572;52.094;4.870;2022-07-25T07:55:06;100853.81;;;22.25;82.54
51496;BME280;37572;52.094;4.870;2022-07-25T07:57:50;100867.25;;;22.32;83.58
51496;BME280;37572;52.094;4.870;2022-07-25T08:00:16;100859.03;;;22.26;83.05
51496;BME280;37572;52.094;4.870;2022-07-25T08:02:43;100859.34;;;22.20;82.20
51496;BME280;37572;52.094;4.870;2022-07-25T08:05:09;100858.22;;;22.26;81.79
51496;BME280;37572;52.094;4.870;2022-07-25T08:07:34;100853.78;;;22.30;82.95
51496;BME280;37572;52.094;4.870;2022-07-25T08:09:59;100846.03;;;22.42;83.05
51496;BME280;37572;52.094;4.870;2022-07-25T08:12:25;100839.34;;;22.78;81.60
51496;BME280;37572;52.094;4.870;2022-07-25T08:14:50;100846.44;;;22.84;80.23
51496;BME280;37572;52.094;4.870;2022-07-25T08:17:15;100845.88;;;23.11;77.88
51496;BME280;37572;52.094;4.870;2022-07-25T08:19:41;100847.72;;;23.16;76.37
51496;BME280;37572;52.094;4.870;2022-07-25T08:22:06;100850.88;;;23.28;77.27
51496;BME280;37572;52.094;4.870;2022-07-25T08:24:31;100844.88;;;23.45;75.09
51496;BME280;37572;52.094;4.870;2022-07-25T08:26:56;100843.91;;;23.55;74.71
51496;BME280;37572;52.094;4.870;2022-07-25T08:29:22;100843.22;;;23.44;76.24
51496;BME280;37572;52.094;4.870;2022-07-25T08:31:47;100850.47;;;23.40;76.73
51496;BME280;37572;52.094;4.870;2022-07-25T08:34:12;100853.84;;;23.08;77.14
51496;BME280;37572;52.094;4.870;2022-07-25T08:36:38;100850.41;;;23.21;76.08
51496;BME280;37572;52.094;4.870;2022-07-25T08:39:03;100847.38;;;22.74;75.97
51496;BME280;37572;52.094;4.870;2022-07-25T08:41:28;100850.13;;;22.74;78.01
51496;BME280;37572;52.094;4.870;2022-07-25T08:43:54;100852.72;;;22.85;77.30
51496;BME280;37572;52.094;4.870;2022-07-25T08:46:20;100853.97;;;22.73;75.99
51496;BME280;37572;52.094;4.870;2022-07-25T08:48:46;100873.25;;;22.63;76.39
51496;BME280;37572;52.094;4.870;2022-07-25T08:51:13;100870.84;;;22.86;76.22
51496;BME280;37572;52.094;4.870;2022-07-25T08:53:38;100865.66;;;23.08;75.73
51496;BME280;37572;52.094;4.870;2022-07-25T08:56:06;100862.56;;;23.15;75.03
51496;BME280;37572;52.094;4.870;2022-07-25T08:58:31;100867.06;;;23.30;73.98
51496;BME280;37572;52.094;4.870;2022-07-25T09:00:57;100866.72;;;23.56;72.56
51496;BME280;37572;52.094;4.870;2022-07-25T09:03:22;100861.81;;;23.72;70.56
51496;BME280;37572;52.094;4.870;2022-07-25T09:05:48;100872.81;;;23.53;70.74
51496;BME280;37572;52.094;4.870;2022-07-25T09:08:15;100855.06;;;23.45;71.06
51496;BME280;37572;52.094;4.870;2022-07-25T09:10:49;100868.66;;;23.74;70.51
51496;BME280;37572;52.094;4.870;2022-07-25T09:13:17;100868.47;;;23.90;69.62
51496;BME280;37572;52.094;4.870;2022-07-25T09:15:48;100875.91;;;23.89;69.49
51496;BME280;37572;52.094;4.870;2022-07-25T09:18:15;100857.78;;;24.21;69.42
51496;BME280;37572;52.094;4.870;2022-07-25T09:20:50;100860.75;;;24.57;68.35
51496;BME280;37572;52.094;4.870;2022-07-25T09:23:36;100860.91;;;24.80;65.75
51496;BME280;37572;52.094;4.870;2022-07-25T09:26:11;100869.16;;;24.80;63.83
51496;BME280;37572;52.094;4.870;2022-07-25T09:28:42;100876.00;;;24.50;64.05
51496;BME280;37572;52.094;4.870;2022-07-25T09:31:08;100876.38;;;24.76;62.91
51496;BME280;37572;52.094;4.870;2022-07-25T09:33:50;100872.59;;;24.58;63.87
51496;BME280;37572;52.094;4.870;2022-07-25T09:36:25;100872.13;;;24.37;64.55
51496;BME280;37572;52.094;4.870;2022-07-25T09:38:52;100881.75;;;24.20;65.27
51496;BME280;37572;52.094;4.870;2022-07-25T09:41:18;100895.28;;;23.98;65.60
51496;BME280;37572;52.094;4.870;2022-07-25T09:43:44;100886.66;;;23.66;66.24
51496;BME280;37572;52.094;4.870;2022-07-25T09:46:10;100888.47;;;23.95;69.41
51496;BME280;37572;52.094;4.870;2022-07-25T09:48:37;100895.66;;;23.91;66.75
51496;BME280;37572;52.094;4.870;2022-07-25T09:51:04;100900.78;;;23.79;66.65
51496;BME280;37572;52.094;4.870;2022-07-25T09:53:29;100903.47;;;23.41;67.44
51496;BME280;37572;52.094;4.870;2022-07-25T09:55:55;100903.44;;;23.22;67.12
51496;BME280;37572;52.094;4.870;2022-07-25T09:58:27;100917.84;;;23.08;67.59
51496;BME280;37572;52.094;4.870;2022-07-25T10:00:59;100915.06;;;23.13;69.26
51496;BME280;37572;52.094;4.870;2022-07-25T10:03:51;100919.63;;;23.23;69.47
51496;BME280;37572;52.094;4.870;2022-07-25T10:08:49;100921.41;;;23.76;68.49
51496;BME280;37572;52.094;4.870;2022-07-25T10:11:23;100922.38;;;23.91;67.89
51496;BME280;37572;52.094;4.870;2022-07-25T10:13:50;100918.25;;;23.88;64.08
51496;BME280;37572;52.094;4.870;2022-07-25T10:16:26;100920.03;;;23.98;62.82
51496;BME280;37572;52.094;4.870;2022-07-25T10:18:54;100930.00;;;24.13;61.67
51496;BME280;37572;52.094;4.870;2022-07-25T10:21:21;100938.72;;;24.20;61.23
51496;BME280;37572;52.094;4.870;2022-07-25T10:24:00;100949.09;;;24.04;61.52
51496;BME280;37572;52.094;4.870;2022-07-25T10:26:26;100942.72;;;23.65;62.15
51496;BME280;37572;52.094;4.870;2022-07-25T10:28:53;100941.44;;;23.82;61.64
51496;BME280;37572;52.094;4.870;2022-07-25T10:31:34;100941.44;;;24.01;61.47
51496;BME280;37572;52.094;4.870;2022-07-25T10:34:05;100942.81;;;23.84;61.55
51496;BME280;37572;52.094;4.870;2022-07-25T10:36:46;100949.66;;;23.82;62.59
51496;BME280;37572;52.094;4.870;2022-07-25T10:39:17;100954.72;;;23.75;63.42
51496;BME280;37572;52.094;4.870;2022-07-25T10:41:50;100951.78;;;23.66;64.76
51496;BME280;37572;52.094;4.870;2022-07-25T10:44:16;100953.84;;;23.55;64.67
51496;BME280;37572;52.094;4.870;2022-07-25T10:46:43;100952.75;;;23.32;64.75
51496;BME280;37572;52.094;4.870;2022-07-25T10:49:17;100956.28;;;23.08;64.74
51496;BME280;37572;52.094;4.870;2022-07-25T10:51:51;100966.66;;;22.87;64.60
51496;BME280;37572;52.094;4.870;2022-07-25T10:54:20;100974.94;;;22.48;66.85
51496;BME280;37572;52.094;4.870;2022-07-25T10:56:51;100968.75;;;22.26;67.82
51496;BME280;37572;52.094;4.870;2022-07-25T10:59:34;100965.75;;;22.23;69.10
51496;BME280;37572;52.094;4.870;2022-07-25T11:02:02;100966.28;;;22.25;68.73
51496;BME280;37572;52.094;4.870;2022-07-25T11:04:28;100974.13;;;21.97;68.53
51496;BME280;37572;52.094;4.870;2022-07-25T11:06:54;100977.41;;;22.04;68.66
51496;BME280;37572;52.094;4.870;2022-07-25T11:09:25;100979.31;;;22.04;69.72
51496;BME280;37572;52.094;4.870;2022-07-25T11:11:54;100972.19;;;22.03;69.40
51496;BME280;37572;52.094;4.870;2022-07-25T11:16:51;100968.13;;;21.95;69.35
51496;BME280;37572;52.094;4.870;2022-07-25T11:19:28;100969.06;;;22.20;69.40
51496;BME280;37572;52.094;4.870;2022-07-25T11:21:58;100980.25;;;22.39;68.44
51496;BME280;37572;52.094;4.870;2022-07-25T11:24:41;100978.53;;;22.48;67.77
51496;BME280;37572;52.094;4.870;2022-07-25T11:27:10;100981.44;;;22.62;68.32
51496;BME280;37572;52.094;4.870;2022-07-25T11:29:36;100979.75;;;22.95;67.91
51496;BME280;37572;52.094;4.870;2022-07-25T11:32:08;100977.13;;;22.85;67.67
51496;BME280;37572;52.094;4.870;2022-07-25T11:34:36;100982.75;;;22.70;68.10
51496;BME280;37572;52.094;4.870;2022-07-25T11:37:03;100985.09;;;22.47;68.84
51496;BME280;37572;52.094;4.870;2022-07-25T11:39:32;100984.53;;;22.50;69.38
51496;BME280;37572;52.094;4.870;2022-07-25T11:47:01;101000.13;;;22.89;65.72
51496;BME280;37572;52.094;4.870;2022-07-25T11:49:27;100997.94;;;22.86;65.35
51496;BME280;37572;52.094;4.870;2022-07-25T11:51:52;101002.19;;;23.03;66.20
51496;BME280;37572;52.094;4.870;2022-07-25T11:54:17;100993.00;;;22.88;66.79
51496;BME280;37572;52.094;4.870;2022-07-25T11:56:43;100980.78;;;23.05;66.00
51496;BME280;37572;52.094;4.870;2022-07-25T11:59:11;101005.25;;;23.01;61.94
51496;BME280;37572;52.094;4.870;2022-07-25T12:01:39;101001.34;;;23.12;59.80
51496;BME280;37572;52.094;4.870;2022-07-25T12:04:22;101007.94;;;23.11;59.54
51496;BME280;37572;52.094;4.870;2022-07-25T12:06:48;101008.41;;;23.19;60.68
51496;BME280;37572;52.094;4.870;2022-07-25T12:09:16;101003.69;;;23.48;58.74
51496;BME280;37572;52.094;4.870;2022-07-25T12:11:44;100999.97;;;23.82;58.09
51496;BME280;37572;52.094;4.870;2022-07-25T12:14:11;100997.38;;;24.15;56.77
51496;BME280;37572;52.094;4.870;2022-07-25T12:16:37;100988.06;;;24.49;55.72
51496;BME280;37572;52.094;4.870;2022-07-25T12:19:04;100998.41;;;24.57;53.49
51496;BME280;37572;52.094;4.870;2022-07-25T12:21:32;101016.94;;;24.71;52.88
51496;BME280;37572;52.094;4.870;2022-07-25T12:23:57;101007.56;;;24.34;53.36
51496;BME280;37572;52.094;4.870;2022-07-25T12:26:23;101003.00;;;24.24;52.72
51496;BME280;37572;52.094;4.870;2022-07-25T12:28:48;101007.91;;;24.27;51.67
51496;BME280;37572;52.094;4.870;2022-07-25T12:31:13;101006.88;;;24.42;51.58
51496;BME280;37572;52.094;4.870;2022-07-25T12:33:39;100997.50;;;24.43;52.33
51496;BME280;37572;52.094;4.870;2022-07-25T12:36:04;101004.06;;;24.28;53.14
51496;BME280;37572;52.094;4.870;2022-07-25T12:38:29;100998.94;;;23.78;51.54
51496;BME280;37572;52.094;4.870;2022-07-25T12:40:55;100995.91;;;23.80;52.54
51496;BME280;37572;52.094;4.870;2022-07-25T12:43:21;100997.94;;;23.93;51.71
51496;BME280;37572;52.094;4.870;2022-07-25T12:45:47;100995.19;;;23.69;51.82
51496;BME280;37572;52.094;4.870;2022-07-25T12:48:13;101010.84;;;23.49;52.61
51496;BME280;37572;52.094;4.870;2022-07-25T12:50:40;101005.66;;;23.19;54.67
51496;BME280;37572;52.094;4.870;2022-07-25T12:53:05;101010.16;;;23.04;55.15
51496;BME280;37572;52.094;4.870;2022-07-25T12:55:31;101010.00;;;23.73;55.72
51496;BME280;37572;52.094;4.870;2022-07-25T12:57:56;101005.09;;;24.13;51.21